1879 Hurricane NOT_NAMED (1879254N14300)


IBTrACS version v04r00. Visit IBTrACS website for data access.
Please direct all questions to the IBTrACS Q and A forum

Storm track - Intensity - Wind Radii - Intensity Data - Source Data - All data

Summary Information

Storm ID 1879254N14300
Start Sep 10 12Z
Landfall Sep 16 18Z, Sep 19 18Z
Max Intensity 80 kt (Sep 18 18Z)
End Sep 20 12Z
ATCF IDs
Track status Best track data.

Storm track plot

Map of storm track

Intensity plots

Map of storm track

Radial wind information

No radial wind information for this storm


Position and Intensity Table

BASIN ISO_TIME_________ NATURE LAT LON MLC WIND
degrees north degrees east kts
NA 1879-09-10 12:00:00 TS 13.80 -60.20 40
NA 15:00:00 TS 13.90 -60.86 42
NA 18:00:00 TS 14.00 -61.50 45
NA 21:00:00 TS 14.10 -62.10 45
NA 1879-09-11 00:00:00 TS 14.20 -62.70 45
NA 03:00:00 TS 14.30 -63.35 45
NA 06:00:00 TS 14.40 -64.00 45
NA 09:00:00 TS 14.51 -64.59 45
NA 12:00:00 TS 14.60 -65.20 45
NA 15:00:00 TS 14.66 -65.89 45
NA 18:00:00 TS 14.70 -66.60 45
NA 21:00:00 TS 14.70 -67.26 45
NA 1879-09-12 00:00:00 TS 14.70 -67.90 45
NA 03:00:00 TS 14.75 -68.55 45
NA 06:00:00 TS 14.80 -69.20 45
NA 09:00:00 TS 14.79 -69.85 47
NA 12:00:00 TS 14.80 -70.50 50
NA 15:00:00 TS 14.89 -71.16 50
NA 18:00:00 TS 15.00 -71.80 50
NA 21:00:00 TS 15.06 -72.40 50
NA 1879-09-13 00:00:00 TS 15.10 -73.00 50
NA 03:00:00 TS 15.15 -73.65 50
NA 06:00:00 TS 15.20 -74.30 50
NA 09:00:00 TS 15.24 -74.91 50
NA 12:00:00 TS 15.30 -75.50 50
NA 15:00:00 TS 15.40 -76.10 50
NA 18:00:00 TS 15.50 -76.70 50
NA 21:00:00 TS 15.55 -77.30 50
NA 1879-09-14 00:00:00 TS 15.60 -77.90 50
NA 03:00:00 TS 15.70 -78.51 50
NA 06:00:00 TS 15.80 -79.10 50
NA 09:00:00 TS 15.84 -79.67 50
NA 12:00:00 TS 15.90 -80.20 50
NA 15:00:00 TS 16.03 -80.66 50
NA 18:00:00 TS 16.20 -81.10 50
NA 21:00:00 TS 16.35 -81.59 50
NA 1879-09-15 00:00:00 TS 16.50 -82.10 50
NA 03:00:00 TS 16.66 -82.61 50
NA 06:00:00 TS 16.80 -83.10 50
NA 09:00:00 TS 16.90 -83.56 50
NA 12:00:00 TS 17.00 -84.00 50
NA 15:00:00 TS 17.15 -84.45 50
NA 18:00:00 TS 17.30 -84.90 50
NA 21:00:00 TS 17.40 -85.36 50
NA 1879-09-16 00:00:00 TS 17.50 -85.80 50
NA 03:00:00 TS 17.65 -86.20 50
NA 06:00:00 TS 17.80 -86.60 50
NA 09:00:00 TS 17.91 -87.07 47
NA 12:00:00 TS 18.00 -87.50 45
NA 15:00:00 TS 18.10 -87.83 42
NA 18:00:00 TS 18.20 -88.10 40
NA 21:00:00 TS 18.30 -88.36 37
NA 1879-09-17 00:00:00 TS 18.40 -88.60 35
NA 03:00:00 TS 18.50 -88.85 32
NA 06:00:00 TS 18.60 -89.10 30
NA 09:00:00 TS 18.69 -89.35 30
NA 12:00:00 TS 18.80 -89.60 30
NA 15:00:00 TS 18.95 -89.85 30
NA 18:00:00 TS 19.10 -90.10 30
NA 21:00:00 TS 19.20 -90.35 35
NA 1879-09-18 00:00:00 TS 19.30 -90.60 40
NA 03:00:00 TS 19.45 -90.85 45
NA 06:00:00 TS 19.60 -91.10 50
NA 09:00:00 TS 19.75 -91.36 55
NA 12:00:00 TS 19.80 -91.60 60
NA 15:00:00 TS 19.68 -91.77 70
NA 18:00:00 TS 19.50 -91.90 80
NA 21:00:00 TS 19.40 -92.05 80
NA 1879-09-19 00:00:00 TS 19.30 -92.20 80
NA 03:00:00 TS 19.15 -92.36 77
NA 06:00:00 TS 19.00 -92.50 75
NA 09:00:00 TS 18.91 -92.61 72
NA 12:00:00 TS 18.80 -92.70 70
NA 15:00:00 TS 18.61 -92.80 67
NA 18:00:00 TS 18.40 -92.90 65
NA 21:00:00 TS 18.24 -93.00 60
NA 1879-09-20 00:00:00 TS 18.10 -93.10 55
NA 03:00:00 TS 17.95 -93.20 47
NA 06:00:00 TS 17.80 -93.30 40
NA 09:00:00 TS 17.65 -93.40 35
NA 12:00:00 TS 17.50 -93.50 30

Source Information

Agency Information
USA
TOKYO
CMA
HKO
NEWDELHI
REUNION
BOM
NADI
WELLINGTON
DS824
TD9636
TD9635
NEUMANN
MLC

All available IBTrACS Data

SEASON BASIN SUBBASIN ISO_TIME_________ NATURE LAT LON DIST2LAND LANDFALL IFLAG USA SSHS MLC LAT MLC LON MLC CLASS MLC WIND STORM SPEED STORM DIR
Year degrees north degrees east km km 1 degrees north degrees east kts kts degrees
1879 NA CS 1879-09-10 12:00:00 TS 13.80 -60.20 357 351 _____________O -1 13.80 -60.20 TS 40 13 279
1879 NA CS 15:00:00 TS 13.90 -60.86 358 358 _____________P -1 13.90 -60.86 TS 42 13 279
1879 NA CS 18:00:00 TS 14.00 -61.50 369 369 _____________O -1 14.00 -61.50 TS 45 12 279
1879 NA CS 21:00:00 TS 14.10 -62.10 380 380 _____________P -1 14.10 -62.10 TS 45 12 280
1879 NA CS 1879-09-11 00:00:00 TS 14.20 -62.70 391 391 _____________O -1 14.20 -62.70 TS 45 12 279
1879 NA CS 03:00:00 TS 14.30 -63.35 404 404 _____________P -1 14.30 -63.35 TS 45 13 279
1879 NA CS 06:00:00 TS 14.40 -64.00 425 412 _____________O -1 14.40 -64.00 TS 45 12 280
1879 NA CS 09:00:00 TS 14.51 -64.59 412 384 _____________P -1 14.51 -64.59 TS 45 12 280
1879 NA CS 12:00:00 TS 14.60 -65.20 384 359 _____________O -1 14.60 -65.20 TS 45 13 277
1879 NA CS 15:00:00 TS 14.66 -65.89 359 358 _____________P -1 14.66 -65.89 TS 45 14 274
1879 NA CS 18:00:00 TS 14.70 -66.60 359 358 _____________O -1 14.70 -66.60 TS 45 13 272
1879 NA CS 21:00:00 TS 14.70 -67.26 358 358 _____________P -1 14.70 -67.26 TS 45 13 270
1879 NA CS 1879-09-12 00:00:00 TS 14.70 -67.90 362 328 _____________O -1 14.70 -67.90 TS 45 13 272
1879 NA CS 03:00:00 TS 14.75 -68.55 328 311 _____________P -1 14.75 -68.55 TS 45 13 275
1879 NA CS 06:00:00 TS 14.80 -69.20 311 302 _____________O -1 14.80 -69.20 TS 45 13 272
1879 NA CS 09:00:00 TS 14.79 -69.85 302 289 _____________P -1 14.79 -69.85 TS 47 13 270
1879 NA CS 12:00:00 TS 14.80 -70.50 289 276 _____________O -1 14.80 -70.50 TS 50 13 275
1879 NA CS 15:00:00 TS 14.89 -71.16 281 279 _____________P -1 14.89 -71.16 TS 50 13 279
1879 NA CS 18:00:00 TS 15.00 -71.80 291 291 _____________O -1 15.00 -71.80 TS 50 12 278
1879 NA CS 21:00:00 TS 15.06 -72.40 299 299 _____________P -1 15.06 -72.40 TS 50 12 275
1879 NA CS 1879-09-13 00:00:00 TS 15.10 -73.00 327 325 _____________O -1 15.10 -73.00 TS 50 12 274
1879 NA CS 03:00:00 TS 15.15 -73.65 324 313 _____________P -1 15.15 -73.65 TS 50 13 275
1879 NA CS 06:00:00 TS 15.20 -74.30 316 316 _____________O -1 15.20 -74.30 TS 50 12 274
1879 NA CS 09:00:00 TS 15.24 -74.91 330 300 _____________P -1 15.24 -74.91 TS 50 12 275
1879 NA CS 12:00:00 TS 15.30 -75.50 300 279 _____________O -1 15.30 -75.50 TS 50 12 278
1879 NA CS 15:00:00 TS 15.40 -76.10 279 251 _____________P -1 15.40 -76.10 TS 50 12 280
1879 NA CS 18:00:00 TS 15.50 -76.70 251 246 _____________O -1 15.50 -76.70 TS 50 12 277
1879 NA CS 21:00:00 TS 15.55 -77.30 246 235 _____________P -1 15.55 -77.30 TS 50 12 275
1879 NA CS 1879-09-14 00:00:00 TS 15.60 -77.90 246 246 _____________O -1 15.60 -77.90 TS 50 12 277
1879 NA CS 03:00:00 TS 15.70 -78.51 260 260 _____________P -1 15.70 -78.51 TS 50 12 280
1879 NA CS 06:00:00 TS 15.80 -79.10 278 278 _____________O -1 15.80 -79.10 TS 50 11 277
1879 NA CS 09:00:00 TS 15.84 -79.67 302 297 _____________P -1 15.84 -79.67 TS 50 11 275
1879 NA CS 12:00:00 TS 15.90 -80.20 320 290 _____________O -1 15.90 -80.20 TS 50 10 281
1879 NA CS 15:00:00 TS 16.03 -80.66 280 252 _____________P -1 16.03 -80.66 TS 50 9 289
1879 NA CS 18:00:00 TS 16.20 -81.10 252 216 _____________O -1 16.20 -81.10 TS 50 10 289
1879 NA CS 21:00:00 TS 16.35 -81.59 216 193 _____________P -1 16.35 -81.59 TS 50 10 287
1879 NA CS 1879-09-15 00:00:00 TS 16.50 -82.10 193 168 _____________O -1 16.50 -82.10 TS 50 10 288
1879 NA CS 03:00:00 TS 16.66 -82.61 178 165 _____________P -1 16.66 -82.61 TS 50 10 287
1879 NA CS 06:00:00 TS 16.80 -83.10 165 149 _____________O -1 16.80 -83.10 TS 50 9 285
1879 NA CS 09:00:00 TS 16.90 -83.56 144 134 _____________P -1 16.90 -83.56 TS 50 9 283
1879 NA CS 12:00:00 TS 17.00 -84.00 138 135 _____________O -1 17.00 -84.00 TS 50 9 286
1879 NA CS 15:00:00 TS 17.15 -84.45 138 138 _____________P -1 17.15 -84.45 TS 50 9 289
1879 NA CS 18:00:00 TS 17.30 -84.90 156 156 _____________O -1 17.30 -84.90 TS 50 9 286
1879 NA CS 21:00:00 TS 17.40 -85.36 167 167 _____________P -1 17.40 -85.36 TS 50 9 283
1879 NA CS 1879-09-16 00:00:00 TS 17.50 -85.80 179 179 _____________O -1 17.50 -85.80 TS 50 8 287
1879 NA CS 03:00:00 TS 17.65 -86.20 182 134 _____________P -1 17.65 -86.20 TS 50 8 292
1879 NA CS 06:00:00 TS 17.80 -86.60 134 91 _____________O -1 17.80 -86.60 TS 50 9 287
1879 NA CS 09:00:00 TS 17.91 -87.07 81 38 _____________P -1 17.91 -87.07 TS 47 9 283
1879 NA CS 12:00:00 TS 18.00 -87.50 38 11 _____________O -1 18.00 -87.50 TS 45 8 285
1879 NA CS 15:00:00 TS 18.10 -87.83 11 0 _____________P -1 18.10 -87.83 TS 42 6 289
1879 NA CS 18:00:00 TS 18.20 -88.10 0 0 _____________O -1 18.20 -88.10 TS 40 5 292
1879 NA NA 21:00:00 TS 18.30 -88.36 0 0 _____________P -1 18.30 -88.36 TS 37 5 293
1879 NA NA 1879-09-17 00:00:00 TS 18.40 -88.60 0 0 _____________O -1 18.40 -88.60 TS 35 5 293
1879 NA NA 03:00:00 TS 18.50 -88.85 0 0 _____________P -1 18.50 -88.85 TS 32 5 293
1879 NA NA 06:00:00 TS 18.60 -89.10 0 0 _____________O -1 18.60 -89.10 TD 30 5 292
1879 NA NA 09:00:00 TS 18.69 -89.35 0 0 _____________P -1 18.69 -89.35 TD 30 5 293
1879 NA NA 12:00:00 TS 18.80 -89.60 0 0 _____________O -1 18.80 -89.60 TD 30 5 299
1879 NA NA 15:00:00 TS 18.95 -89.85 0 0 _____________P -1 18.95 -89.85 TD 30 6 302
1879 NA NA 18:00:00 TS 19.10 -90.10 0 0 _____________O -1 19.10 -90.10 TD 30 5 298
1879 NA NA 21:00:00 TS 19.20 -90.35 0 0 _____________P -1 19.20 -90.35 TD 35 5 293
1879 NA NA 1879-09-18 00:00:00 TS 19.30 -90.60 0 0 _____________O -1 19.30 -90.60 TS 40 5 298
1879 NA GM 03:00:00 TS 19.45 -90.85 10 10 _____________P -1 19.45 -90.85 TS 45 6 303
1879 NA GM 06:00:00 TS 19.60 -91.10 41 41 _____________O -1 19.60 -91.10 TS 50 6 301
1879 NA GM 09:00:00 TS 19.75 -91.36 69 69 _____________P -1 19.75 -91.36 TS 55 5 293
1879 NA GM 12:00:00 TS 19.80 -91.60 91 88 _____________O -1 19.80 -91.60 TS 60 4 260
1879 NA GM 15:00:00 TS 19.68 -91.77 94 79 _____________P -1 19.68 -91.77 TS 70 4 223
1879 NA GM 18:00:00 TS 19.50 -91.90 79 76 _____________O -1 19.50 -91.90 HU 80 4 224
1879 NA GM 21:00:00 TS 19.40 -92.05 76 76 _____________P -1 19.40 -92.05 HU 80 3 235
1879 NA GM 1879-09-19 00:00:00 TS 19.30 -92.20 78 67 _____________O -1 19.30 -92.20 HU 80 4 229
1879 NA GM 03:00:00 TS 19.15 -92.36 67 44 _____________P -1 19.15 -92.36 HU 77 4 223
1879 NA GM 06:00:00 TS 19.00 -92.50 44 33 _____________O -1 19.00 -92.50 HU 75 3 225
1879 NA GM 09:00:00 TS 18.91 -92.61 33 22 _____________P -1 18.91 -92.61 HU 72 3 224
1879 NA GM 12:00:00 TS 18.80 -92.70 22 10 _____________O -1 18.80 -92.70 HU 70 4 211
1879 NA GM 15:00:00 TS 18.61 -92.80 10 0 _____________P -1 18.61 -92.80 HU 67 4 205
1879 NA NA 18:00:00 TS 18.40 -92.90 0 0 _____________O -1 18.40 -92.90 HU 65 4 207
1879 NA NA 21:00:00 TS 18.24 -93.00 0 0 _____________P -1 18.24 -93.00 HU 60 4 212
1879 NA NA 1879-09-20 00:00:00 TS 18.10 -93.10 0 0 _____________O -1 18.10 -93.10 TS 55 4 213
1879 NA NA 03:00:00 TS 17.95 -93.20 0 0 _____________P -1 17.95 -93.20 TS 47 4 212
1879 NA NA 06:00:00 TS 17.80 -93.30 0 0 _____________O -1 17.80 -93.30 TS 40 4 212
1879 NA NA 09:00:00 TS 17.65 -93.40 0 0 _____________P -1 17.65 -93.40 TS 35 4 212
1879 NA NA 12:00:00 TS 17.50 -93.50 0 _____________O -1 17.50 -93.50 TD 30 4 212